sensor_id;sensor_type;location;lat;lon;timestamp;P1;durP1;ratioP1;P2;durP2;ratioP2
34541;SDS011;20784;51.332;12.410;2024-03-02T00:00:18;53.83;;;27.73;;
34541;SDS011;20784;51.332;12.410;2024-03-02T00:02:46;57.08;;;29.45;;
34541;SDS011;20784;51.332;12.410;2024-03-02T00:05:17;53.05;;;27.50;;
34541;SDS011;20784;51.332;12.410;2024-03-02T00:07:54;52.67;;;28.55;;
34541;SDS011;20784;51.332;12.410;2024-03-02T00:10:34;52.83;;;28.15;;
34541;SDS011;20784;51.332;12.410;2024-03-02T00:13:07;53.47;;;28.35;;
34541;SDS011;20784;51.332;12.410;2024-03-02T00:18:10;56.17;;;28.08;;
34541;SDS011;20784;51.332;12.410;2024-03-02T00:20:43;51.97;;;27.90;;
34541;SDS011;20784;51.332;12.410;2024-03-02T00:23:14;53.10;;;28.67;;
34541;SDS011;20784;51.332;12.410;2024-03-02T00:25:44;53.13;;;28.00;;
34541;SDS011;20784;51.332;12.410;2024-03-02T00:28:33;51.60;;;27.67;;
34541;SDS011;20784;51.332;12.410;2024-03-02T00:31:04;47.75;;;27.00;;
34541;SDS011;20784;51.332;12.410;2024-03-02T00:33:40;52.58;;;27.00;;
34541;SDS011;20784;51.332;12.410;2024-03-02T00:36:26;49.47;;;27.20;;
34541;SDS011;20784;51.332;12.410;2024-03-02T00:38:57;52.25;;;27.38;;
34541;SDS011;20784;51.332;12.410;2024-03-02T00:41:23;48.42;;;25.63;;
34541;SDS011;20784;51.332;12.410;2024-03-02T00:44:04;48.58;;;26.83;;
34541;SDS011;20784;51.332;12.410;2024-03-02T00:46:43;48.78;;;26.65;;
34541;SDS011;20784;51.332;12.410;2024-03-02T00:51:48;52.13;;;27.10;;
34541;SDS011;20784;51.332;12.410;2024-03-02T00:54:17;48.80;;;26.65;;
34541;SDS011;20784;51.332;12.410;2024-03-02T00:56:51;49.42;;;26.77;;
34541;SDS011;20784;51.332;12.410;2024-03-02T00:59:22;47.65;;;27.45;;
34541;SDS011;20784;51.332;12.410;2024-03-02T01:01:51;49.25;;;26.77;;
34541;SDS011;20784;51.332;12.410;2024-03-02T01:04:17;46.78;;;26.48;;
34541;SDS011;20784;51.332;12.410;2024-03-02T01:06:45;51.58;;;27.42;;
34541;SDS011;20784;51.332;12.410;2024-03-02T01:09:11;48.67;;;26.77;;
34541;SDS011;20784;51.332;12.410;2024-03-02T01:11:40;49.92;;;25.52;;
34541;SDS011;20784;51.332;12.410;2024-03-02T01:14:06;48.30;;;25.70;;
34541;SDS011;20784;51.332;12.410;2024-03-02T01:16:37;46.33;;;25.52;;
34541;SDS011;20784;51.332;12.410;2024-03-02T01:19:04;43.72;;;24.58;;
34541;SDS011;20784;51.332;12.410;2024-03-02T01:21:30;47.28;;;24.35;;
34541;SDS011;20784;51.332;12.410;2024-03-02T01:23:56;44.42;;;23.35;;
34541;SDS011;20784;51.332;12.410;2024-03-02T01:26:21;40.92;;;22.08;;
34541;SDS011;20784;51.332;12.410;2024-03-02T01:28:47;47.70;;;24.88;;
34541;SDS011;20784;51.332;12.410;2024-03-02T01:31:16;47.10;;;23.33;;
34541;SDS011;20784;51.332;12.410;2024-03-02T01:33:44;48.33;;;22.95;;
34541;SDS011;20784;51.332;12.410;2024-03-02T01:36:12;41.97;;;22.70;;
34541;SDS011;20784;51.332;12.410;2024-03-02T01:38:44;40.13;;;21.77;;
34541;SDS011;20784;51.332;12.410;2024-03-02T01:41:25;42.30;;;22.10;;
34541;SDS011;20784;51.332;12.410;2024-03-02T01:43:51;45.17;;;22.52;;
34541;SDS011;20784;51.332;12.410;2024-03-02T01:46:47;37.90;;;21.25;;
34541;SDS011;20784;51.332;12.410;2024-03-02T01:49:16;38.60;;;21.10;;
34541;SDS011;20784;51.332;12.410;2024-03-02T01:51:41;40.10;;;21.55;;
34541;SDS011;20784;51.332;12.410;2024-03-02T01:54:07;40.63;;;21.20;;
34541;SDS011;20784;51.332;12.410;2024-03-02T01:56:32;39.65;;;20.45;;
34541;SDS011;20784;51.332;12.410;2024-03-02T01:58:58;38.72;;;21.00;;
34541;SDS011;20784;51.332;12.410;2024-03-02T02:01:27;39.63;;;20.85;;
34541;SDS011;20784;51.332;12.410;2024-03-02T02:03:52;36.85;;;21.38;;
34541;SDS011;20784;51.332;12.410;2024-03-02T02:06:18;39.30;;;20.25;;
34541;SDS011;20784;51.332;12.410;2024-03-02T02:08:44;36.63;;;20.75;;
34541;SDS011;20784;51.332;12.410;2024-03-02T02:11:10;40.28;;;20.55;;
34541;SDS011;20784;51.332;12.410;2024-03-02T02:13:39;35.78;;;19.60;;
34541;SDS011;20784;51.332;12.410;2024-03-02T02:16:05;36.25;;;19.67;;
34541;SDS011;20784;51.332;12.410;2024-03-02T02:18:31;42.88;;;19.90;;
34541;SDS011;20784;51.332;12.410;2024-03-02T02:20:57;34.88;;;19.50;;
34541;SDS011;20784;51.332;12.410;2024-03-02T02:23:23;36.53;;;19.25;;
34541;SDS011;20784;51.332;12.410;2024-03-02T02:25:48;39.00;;;18.67;;
34541;SDS011;20784;51.332;12.410;2024-03-02T02:28:14;38.08;;;19.38;;
34541;SDS011;20784;51.332;12.410;2024-03-02T02:30:39;32.33;;;18.20;;
34541;SDS011;20784;51.332;12.410;2024-03-02T02:33:05;37.83;;;18.98;;
34541;SDS011;20784;51.332;12.410;2024-03-02T02:35:30;33.15;;;18.50;;
34541;SDS011;20784;51.332;12.410;2024-03-02T02:37:59;32.85;;;18.50;;
34541;SDS011;20784;51.332;12.410;2024-03-02T02:40:25;34.95;;;19.20;;
34541;SDS011;20784;51.332;12.410;2024-03-02T02:42:51;31.10;;;17.58;;
34541;SDS011;20784;51.332;12.410;2024-03-02T02:45:20;39.97;;;18.63;;
34541;SDS011;20784;51.332;12.410;2024-03-02T02:47:45;34.22;;;18.60;;
34541;SDS011;20784;51.332;12.410;2024-03-02T02:50:11;34.35;;;18.35;;
34541;SDS011;20784;51.332;12.410;2024-03-02T02:52:38;36.85;;;18.38;;
34541;SDS011;20784;51.332;12.410;2024-03-02T02:55:06;34.22;;;18.38;;
34541;SDS011;20784;51.332;12.410;2024-03-02T02:57:35;37.37;;;19.77;;
34541;SDS011;20784;51.332;12.410;2024-03-02T03:00:18;35.53;;;18.27;;
34541;SDS011;20784;51.332;12.410;2024-03-02T03:02:45;31.65;;;18.10;;
34541;SDS011;20784;51.332;12.410;2024-03-02T03:05:13;28.83;;;18.13;;
34541;SDS011;20784;51.332;12.410;2024-03-02T03:07:40;32.65;;;18.33;;
34541;SDS011;20784;51.332;12.410;2024-03-02T03:10:06;31.90;;;18.80;;
34541;SDS011;20784;51.332;12.410;2024-03-02T03:12:36;32.92;;;18.55;;
34541;SDS011;20784;51.332;12.410;2024-03-02T03:15:02;31.98;;;17.13;;
34541;SDS011;20784;51.332;12.410;2024-03-02T03:17:29;34.58;;;18.13;;
34541;SDS011;20784;51.332;12.410;2024-03-02T03:19:55;33.83;;;17.98;;
34541;SDS011;20784;51.332;12.410;2024-03-02T03:22:23;31.40;;;18.08;;
34541;SDS011;20784;51.332;12.410;2024-03-02T03:24:48;33.88;;;18.02;;
34541;SDS011;20784;51.332;12.410;2024-03-02T03:27:17;33.40;;;17.92;;
34541;SDS011;20784;51.332;12.410;2024-03-02T03:29:42;39.10;;;19.20;;
34541;SDS011;20784;51.332;12.410;2024-03-02T03:32:08;37.90;;;17.90;;
34541;SDS011;20784;51.332;12.410;2024-03-02T03:34:34;33.72;;;17.52;;
34541;SDS011;20784;51.332;12.410;2024-03-02T03:37:00;33.95;;;18.25;;
34541;SDS011;20784;51.332;12.410;2024-03-02T03:39:25;31.17;;;17.60;;
34541;SDS011;20784;51.332;12.410;2024-03-02T03:41:51;34.38;;;18.20;;
34541;SDS011;20784;51.332;12.410;2024-03-02T03:44:16;36.63;;;17.65;;
34541;SDS011;20784;51.332;12.410;2024-03-02T03:46:42;36.45;;;18.10;;
34541;SDS011;20784;51.332;12.410;2024-03-02T03:49:07;35.13;;;18.27;;
34541;SDS011;20784;51.332;12.410;2024-03-02T03:51:35;33.28;;;18.30;;
34541;SDS011;20784;51.332;12.410;2024-03-02T03:54:03;33.47;;;18.58;;
34541;SDS011;20784;51.332;12.410;2024-03-02T03:56:31;31.90;;;17.27;;
34541;SDS011;20784;51.332;12.410;2024-03-02T03:58:57;34.17;;;17.35;;
34541;SDS011;20784;51.332;12.410;2024-03-02T04:01:24;30.73;;;18.05;;
34541;SDS011;20784;51.332;12.410;2024-03-02T04:03:50;33.05;;;17.85;;
34541;SDS011;20784;51.332;12.410;2024-03-02T04:06:15;35.83;;;18.23;;
34541;SDS011;20784;51.332;12.410;2024-03-02T04:08:42;33.45;;;18.10;;
34541;SDS011;20784;51.332;12.410;2024-03-02T04:11:10;31.77;;;18.00;;
34541;SDS011;20784;51.332;12.410;2024-03-02T04:13:36;32.03;;;18.10;;
34541;SDS011;20784;51.332;12.410;2024-03-02T04:16:02;37.75;;;17.98;;
34541;SDS011;20784;51.332;12.410;2024-03-02T04:18:28;36.85;;;17.98;;
34541;SDS011;20784;51.332;12.410;2024-03-02T04:20:54;33.17;;;18.25;;
34541;SDS011;20784;51.332;12.410;2024-03-02T04:23:24;32.42;;;18.40;;
34541;SDS011;20784;51.332;12.410;2024-03-02T04:25:53;36.30;;;19.15;;
34541;SDS011;20784;51.332;12.410;2024-03-02T04:28:18;32.85;;;18.15;;
34541;SDS011;20784;51.332;12.410;2024-03-02T04:30:44;33.55;;;18.00;;
34541;SDS011;20784;51.332;12.410;2024-03-02T04:33:12;35.95;;;18.55;;
34541;SDS011;20784;51.332;12.410;2024-03-02T04:35:38;33.33;;;17.88;;
34541;SDS011;20784;51.332;12.410;2024-03-02T04:38:04;34.80;;;17.88;;
34541;SDS011;20784;51.332;12.410;2024-03-02T04:40:30;32.70;;;18.45;;
34541;SDS011;20784;51.332;12.410;2024-03-02T04:42:55;37.20;;;18.52;;
34541;SDS011;20784;51.332;12.410;2024-03-02T04:45:21;32.80;;;17.60;;
34541;SDS011;20784;51.332;12.410;2024-03-02T04:47:46;33.20;;;18.67;;
34541;SDS011;20784;51.332;12.410;2024-03-02T04:50:12;36.92;;;18.05;;
34541;SDS011;20784;51.332;12.410;2024-03-02T04:52:37;35.55;;;18.60;;
34541;SDS011;20784;51.332;12.410;2024-03-02T04:55:03;38.38;;;19.08;;
34541;SDS011;20784;51.332;12.410;2024-03-02T04:57:42;32.78;;;18.40;;
34541;SDS011;20784;51.332;12.410;2024-03-02T05:00:11;34.95;;;19.95;;
34541;SDS011;20784;51.332;12.410;2024-03-02T05:02:37;37.28;;;18.75;;
34541;SDS011;20784;51.332;12.410;2024-03-02T05:05:03;33.28;;;17.70;;
34541;SDS011;20784;51.332;12.410;2024-03-02T05:07:29;34.65;;;17.77;;
34541;SDS011;20784;51.332;12.410;2024-03-02T05:09:54;32.28;;;17.63;;
34541;SDS011;20784;51.332;12.410;2024-03-02T05:12:29;35.58;;;19.05;;
34541;SDS011;20784;51.332;12.410;2024-03-02T05:15:10;41.67;;;18.80;;
34541;SDS011;20784;51.332;12.410;2024-03-02T05:17:37;36.53;;;18.63;;
34541;SDS011;20784;51.332;12.410;2024-03-02T05:20:03;31.15;;;17.45;;
34541;SDS011;20784;51.332;12.410;2024-03-02T05:22:36;34.50;;;19.05;;
34541;SDS011;20784;51.332;12.410;2024-03-02T05:25:02;35.72;;;18.90;;
34541;SDS011;20784;51.332;12.410;2024-03-02T05:27:29;40.22;;;18.77;;
34541;SDS011;20784;51.332;12.410;2024-03-02T05:29:56;38.28;;;18.63;;
34541;SDS011;20784;51.332;12.410;2024-03-02T05:32:22;33.03;;;19.05;;
34541;SDS011;20784;51.332;12.410;2024-03-02T05:34:50;36.08;;;18.98;;
34541;SDS011;20784;51.332;12.410;2024-03-02T05:37:28;31.17;;;17.58;;
34541;SDS011;20784;51.332;12.410;2024-03-02T05:43:12;34.35;;;19.40;;
34541;SDS011;20784;51.332;12.410;2024-03-02T05:45:58;33.92;;;18.48;;
34541;SDS011;20784;51.332;12.410;2024-03-02T05:55:32;35.88;;;18.10;;
34541;SDS011;20784;51.332;12.410;2024-03-02T05:58:03;33.60;;;18.50;;
34541;SDS011;20784;51.332;12.410;2024-03-02T06:00:32;39.70;;;18.73;;
34541;SDS011;20784;51.332;12.410;2024-03-02T06:03:06;39.45;;;20.08;;
34541;SDS011;20784;51.332;12.410;2024-03-02T06:09:15;36.72;;;19.73;;
34541;SDS011;20784;51.332;12.410;2024-03-02T06:11:50;37.75;;;19.15;;
34541;SDS011;20784;51.332;12.410;2024-03-02T06:14:18;41.15;;;20.80;;
34541;SDS011;20784;51.332;12.410;2024-03-02T06:28:50;38.42;;;21.05;;
34541;SDS011;20784;51.332;12.410;2024-03-02T06:31:17;39.63;;;20.15;;
34541;SDS011;20784;51.332;12.410;2024-03-02T06:34:04;42.08;;;21.13;;
34541;SDS011;20784;51.332;12.410;2024-03-02T06:39:12;42.28;;;21.10;;
34541;SDS011;20784;51.332;12.410;2024-03-02T06:41:41;43.80;;;22.27;;
34541;SDS011;20784;51.332;12.410;2024-03-02T06:44:16;38.80;;;21.70;;
34541;SDS011;20784;51.332;12.410;2024-03-02T06:46:48;42.28;;;23.85;;
34541;SDS011;20784;51.332;12.410;2024-03-02T06:49:14;42.45;;;21.10;;
34541;SDS011;20784;51.332;12.410;2024-03-02T06:51:47;40.53;;;20.30;;
34541;SDS011;20784;51.332;12.410;2024-03-02T06:54:20;44.00;;;21.73;;
34541;SDS011;20784;51.332;12.410;2024-03-02T06:56:49;45.90;;;22.83;;
34541;SDS011;20784;51.332;12.410;2024-03-02T06:59:15;39.75;;;19.70;;
34541;SDS011;20784;51.332;12.410;2024-03-02T07:01:40;34.55;;;19.65;;
34541;SDS011;20784;51.332;12.410;2024-03-02T07:04:09;42.55;;;21.48;;
34541;SDS011;20784;51.332;12.410;2024-03-02T07:06:34;34.72;;;19.63;;
34541;SDS011;20784;51.332;12.410;2024-03-02T07:09:08;39.13;;;20.48;;
34541;SDS011;20784;51.332;12.410;2024-03-02T07:11:43;51.67;;;21.58;;
34541;SDS011;20784;51.332;12.410;2024-03-02T07:14:08;38.95;;;19.38;;
34541;SDS011;20784;51.332;12.410;2024-03-02T07:16:37;44.50;;;22.10;;
34541;SDS011;20784;51.332;12.410;2024-03-02T07:19:04;41.13;;;20.40;;
34541;SDS011;20784;51.332;12.410;2024-03-02T07:21:31;37.65;;;20.58;;
34541;SDS011;20784;51.332;12.410;2024-03-02T07:24:00;40.63;;;20.65;;
34541;SDS011;20784;51.332;12.410;2024-03-02T07:28:56;36.65;;;19.10;;
34541;SDS011;20784;51.332;12.410;2024-03-02T07:31:27;38.00;;;19.60;;
34541;SDS011;20784;51.332;12.410;2024-03-02T07:33:58;38.78;;;19.67;;
34541;SDS011;20784;51.332;12.410;2024-03-02T07:36:39;39.00;;;20.30;;
34541;SDS011;20784;51.332;12.410;2024-03-02T07:39:10;42.60;;;20.97;;
34541;SDS011;20784;51.332;12.410;2024-03-02T07:41:36;35.83;;;19.98;;
34541;SDS011;20784;51.332;12.410;2024-03-02T07:44:02;45.15;;;22.30;;
34541;SDS011;20784;51.332;12.410;2024-03-02T07:46:27;34.20;;;18.70;;
34541;SDS011;20784;51.332;12.410;2024-03-02T07:48:53;38.67;;;20.27;;
34541;SDS011;20784;51.332;12.410;2024-03-02T07:51:19;38.95;;;20.17;;
34541;SDS011;20784;51.332;12.410;2024-03-02T07:53:44;37.15;;;19.40;;
34541;SDS011;20784;51.332;12.410;2024-03-02T07:56:10;36.80;;;19.67;;
34541;SDS011;20784;51.332;12.410;2024-03-02T07:58:36;38.63;;;20.60;;
34541;SDS011;20784;51.332;12.410;2024-03-02T08:01:01;32.85;;;19.13;;
34541;SDS011;20784;51.332;12.410;2024-03-02T08:03:27;33.72;;;18.42;;
34541;SDS011;20784;51.332;12.410;2024-03-02T08:05:53;37.05;;;19.85;;
34541;SDS011;20784;51.332;12.410;2024-03-02T08:08:34;39.47;;;18.88;;
34541;SDS011;20784;51.332;12.410;2024-03-02T08:11:03;35.35;;;18.27;;
34541;SDS011;20784;51.332;12.410;2024-03-02T08:13:31;38.53;;;19.90;;
34541;SDS011;20784;51.332;12.410;2024-03-02T08:15:57;34.72;;;19.48;;
34541;SDS011;20784;51.332;12.410;2024-03-02T08:18:23;34.22;;;19.58;;
34541;SDS011;20784;51.332;12.410;2024-03-02T08:20:49;38.08;;;19.05;;
34541;SDS011;20784;51.332;12.410;2024-03-02T08:23:17;35.67;;;19.25;;
34541;SDS011;20784;51.332;12.410;2024-03-02T08:25:46;34.88;;;18.38;;
34541;SDS011;20784;51.332;12.410;2024-03-02T08:28:28;37.67;;;19.95;;
34541;SDS011;20784;51.332;12.410;2024-03-02T08:31:00;33.65;;;19.85;;
34541;SDS011;20784;51.332;12.410;2024-03-02T08:33:28;34.42;;;19.63;;
34541;SDS011;20784;51.332;12.410;2024-03-02T08:35:54;36.38;;;20.02;;
34541;SDS011;20784;51.332;12.410;2024-03-02T08:38:20;35.75;;;19.33;;
34541;SDS011;20784;51.332;12.410;2024-03-02T08:40:48;42.40;;;21.13;;
34541;SDS011;20784;51.332;12.410;2024-03-02T08:46:09;32.88;;;19.83;;
34541;SDS011;20784;51.332;12.410;2024-03-02T08:48:37;43.13;;;21.23;;
34541;SDS011;20784;51.332;12.410;2024-03-02T08:51:09;41.10;;;20.17;;
34541;SDS011;20784;51.332;12.410;2024-03-02T08:53:37;42.53;;;21.38;;
34541;SDS011;20784;51.332;12.410;2024-03-02T08:56:05;37.38;;;20.70;;
34541;SDS011;20784;51.332;12.410;2024-03-02T08:58:34;39.58;;;22.25;;
34541;SDS011;20784;51.332;12.410;2024-03-02T09:01:05;39.63;;;20.33;;
34541;SDS011;20784;51.332;12.410;2024-03-02T09:03:39;37.22;;;21.20;;
34541;SDS011;20784;51.332;12.410;2024-03-02T09:06:47;37.17;;;20.88;;
34541;SDS011;20784;51.332;12.410;2024-03-02T09:08:57;37.88;;;20.63;;
34541;SDS011;20784;51.332;12.410;2024-03-02T09:11:22;39.78;;;20.13;;
34541;SDS011;20784;51.332;12.410;2024-03-02T09:13:48;36.47;;;20.40;;
34541;SDS011;20784;51.332;12.410;2024-03-02T09:16:14;39.95;;;20.70;;
34541;SDS011;20784;51.332;12.410;2024-03-02T09:18:45;40.38;;;21.00;;
34541;SDS011;20784;51.332;12.410;2024-03-02T09:21:13;36.85;;;20.85;;
34541;SDS011;20784;51.332;12.410;2024-03-02T09:23:40;38.53;;;19.92;;
34541;SDS011;20784;51.332;12.410;2024-03-02T09:26:10;42.22;;;21.38;;
34541;SDS011;20784;51.332;12.410;2024-03-02T09:28:46;38.08;;;20.23;;
34541;SDS011;20784;51.332;12.410;2024-03-02T09:31:14;38.22;;;20.33;;
34541;SDS011;20784;51.332;12.410;2024-03-02T09:33:42;43.22;;;20.58;;
34541;SDS011;20784;51.332;12.410;2024-03-02T09:36:42;43.45;;;21.27;;
34541;SDS011;20784;51.332;12.410;2024-03-02T09:41:56;32.08;;;18.30;;
34541;SDS011;20784;51.332;12.410;2024-03-02T09:44:35;31.95;;;17.88;;
34541;SDS011;20784;51.332;12.410;2024-03-02T09:47:03;37.70;;;19.17;;
34541;SDS011;20784;51.332;12.410;2024-03-02T09:49:28;33.97;;;18.15;;
34541;SDS011;20784;51.332;12.410;2024-03-02T09:51:56;34.63;;;18.55;;
34541;SDS011;20784;51.332;12.410;2024-03-02T09:54:22;29.63;;;17.15;;
34541;SDS011;20784;51.332;12.410;2024-03-02T09:56:51;33.88;;;16.90;;
34541;SDS011;20784;51.332;12.410;2024-03-02T09:59:16;33.58;;;17.75;;
34541;SDS011;20784;51.332;12.410;2024-03-02T10:01:59;27.95;;;16.27;;
34541;SDS011;20784;51.332;12.410;2024-03-02T10:04:29;30.38;;;16.13;;
34541;SDS011;20784;51.332;12.410;2024-03-02T10:09:41;27.42;;;16.35;;
34541;SDS011;20784;51.332;12.410;2024-03-02T10:12:21;29.63;;;16.70;;
34541;SDS011;20784;51.332;12.410;2024-03-02T10:14:47;32.20;;;17.10;;
34541;SDS011;20784;51.332;12.410;2024-03-02T10:17:17;29.25;;;15.27;;
34541;SDS011;20784;51.332;12.410;2024-03-02T10:19:46;26.17;;;14.68;;
34541;SDS011;20784;51.332;12.410;2024-03-02T10:22:14;27.88;;;15.45;;
34541;SDS011;20784;51.332;12.410;2024-03-02T10:24:51;27.20;;;14.73;;
34541;SDS011;20784;51.332;12.410;2024-03-02T10:27:28;24.08;;;14.18;;
34541;SDS011;20784;51.332;12.410;2024-03-02T10:29:57;26.83;;;14.85;;
34541;SDS011;20784;51.332;12.410;2024-03-02T10:32:30;25.05;;;13.85;;
34541;SDS011;20784;51.332;12.410;2024-03-02T10:35:05;20.95;;;12.10;;
34541;SDS011;20784;51.332;12.410;2024-03-02T10:38:00;19.35;;;12.27;;
34541;SDS011;20784;51.332;12.410;2024-03-02T10:51:05;19.00;;;11.18;;
34541;SDS011;20784;51.332;12.410;2024-03-02T11:00:34;17.98;;;10.57;;
34541;SDS011;20784;51.332;12.410;2024-03-02T11:03:10;17.23;;;9.98;;
34541;SDS011;20784;51.332;12.410;2024-03-02T11:06:20;15.45;;;9.82;;
34541;SDS011;20784;51.332;12.410;2024-03-02T11:08:52;18.48;;;10.18;;
34541;SDS011;20784;51.332;12.410;2024-03-02T11:11:28;20.05;;;10.95;;
34541;SDS011;20784;51.332;12.410;2024-03-02T11:14:01;15.25;;;9.27;;
34541;SDS011;20784;51.332;12.410;2024-03-02T11:16:36;17.75;;;10.40;;
34541;SDS011;20784;51.332;12.410;2024-03-02T11:19:04;14.38;;;8.98;;
34541;SDS011;20784;51.332;12.410;2024-03-02T11:21:32;22.58;;;11.40;;
34541;SDS011;20784;51.332;12.410;2024-03-02T11:23:59;14.02;;;9.55;;
34541;SDS011;20784;51.332;12.410;2024-03-02T11:26:45;15.35;;;9.57;;
34541;SDS011;20784;51.332;12.410;2024-03-02T11:29:21;16.42;;;10.10;;
34541;SDS011;20784;51.332;12.410;2024-03-02T11:32:06;18.33;;;10.63;;
34541;SDS011;20784;51.332;12.410;2024-03-02T11:34:54;14.77;;;10.02;;
34541;SDS011;20784;51.332;12.410;2024-03-02T11:37:23;17.23;;;10.57;;
34541;SDS011;20784;51.332;12.410;2024-03-02T11:40:08;15.98;;;10.07;;
34541;SDS011;20784;51.332;12.410;2024-03-02T11:42:38;16.25;;;8.90;;
34541;SDS011;20784;51.332;12.410;2024-03-02T11:45:27;16.00;;;9.95;;
34541;SDS011;20784;51.332;12.410;2024-03-02T11:48:08;15.35;;;9.95;;
34541;SDS011;20784;51.332;12.410;2024-03-02T11:50:42;14.80;;;9.15;;
34541;SDS011;20784;51.332;12.410;2024-03-02T11:53:12;15.10;;;8.63;;
34541;SDS011;20784;51.332;12.410;2024-03-02T11:55:44;13.55;;;9.57;;
34541;SDS011;20784;51.332;12.410;2024-03-02T11:58:39;14.02;;;8.90;;
34541;SDS011;20784;51.332;12.410;2024-03-02T12:01:06;15.63;;;8.85;;
34541;SDS011;20784;51.332;12.410;2024-03-02T12:03:32;14.05;;;9.32;;
34541;SDS011;20784;51.332;12.410;2024-03-02T12:06:02;13.98;;;9.13;;
34541;SDS011;20784;51.332;12.410;2024-03-02T12:11:20;16.45;;;9.20;;
34541;SDS011;20784;51.332;12.410;2024-03-02T12:13:51;15.68;;;10.15;;
34541;SDS011;20784;51.332;12.410;2024-03-02T12:16:25;16.08;;;10.05;;
34541;SDS011;20784;51.332;12.410;2024-03-02T12:19:33;19.23;;;9.30;;
34541;SDS011;20784;51.332;12.410;2024-03-02T12:24:58;18.90;;;8.60;;
34541;SDS011;20784;51.332;12.410;2024-03-02T12:27:35;16.50;;;8.70;;
34541;SDS011;20784;51.332;12.410;2024-03-02T12:30:23;13.77;;;8.75;;
34541;SDS011;20784;51.332;12.410;2024-03-02T12:33:26;13.18;;;8.63;;
34541;SDS011;20784;51.332;12.410;2024-03-02T12:35:54;11.50;;;8.15;;
34541;SDS011;20784;51.332;12.410;2024-03-02T12:38:21;13.00;;;8.90;;
34541;SDS011;20784;51.332;12.410;2024-03-02T12:40:53;12.07;;;8.43;;
34541;SDS011;20784;51.332;12.410;2024-03-02T12:43:19;11.70;;;7.63;;
34541;SDS011;20784;51.332;12.410;2024-03-02T12:48:41;11.00;;;7.32;;
34541;SDS011;20784;51.332;12.410;2024-03-02T12:51:09;13.30;;;8.00;;
34541;SDS011;20784;51.332;12.410;2024-03-02T12:53:35;11.38;;;7.05;;
34541;SDS011;20784;51.332;12.410;2024-03-02T12:56:04;11.20;;;6.60;;
34541;SDS011;20784;51.332;12.410;2024-03-02T12:58:43;9.45;;;6.35;;
34541;SDS011;20784;51.332;12.410;2024-03-02T13:01:09;12.70;;;7.85;;
34541;SDS011;20784;51.332;12.410;2024-03-02T13:03:38;9.02;;;5.57;;
34541;SDS011;20784;51.332;12.410;2024-03-02T13:06:06;9.70;;;7.10;;
34541;SDS011;20784;51.332;12.410;2024-03-02T13:11:22;11.45;;;7.45;;
34541;SDS011;20784;51.332;12.410;2024-03-02T13:13:51;10.45;;;6.70;;
34541;SDS011;20784;51.332;12.410;2024-03-02T13:16:17;12.90;;;7.25;;
34541;SDS011;20784;51.332;12.410;2024-03-02T13:18:45;10.88;;;7.05;;
34541;SDS011;20784;51.332;12.410;2024-03-02T13:21:17;10.50;;;6.80;;
34541;SDS011;20784;51.332;12.410;2024-03-02T13:23:42;11.13;;;7.47;;
34541;SDS011;20784;51.332;12.410;2024-03-02T13:26:08;11.98;;;6.78;;
34541;SDS011;20784;51.332;12.410;2024-03-02T13:28:35;11.18;;;6.88;;
34541;SDS011;20784;51.332;12.410;2024-03-02T13:31:01;16.90;;;7.97;;
34541;SDS011;20784;51.332;12.410;2024-03-02T13:33:34;12.60;;;8.60;;
34541;SDS011;20784;51.332;12.410;2024-03-02T13:36:10;10.35;;;7.57;;
34541;SDS011;20784;51.332;12.410;2024-03-02T13:38:36;12.02;;;8.07;;
34541;SDS011;20784;51.332;12.410;2024-03-02T13:41:11;10.77;;;7.55;;
34541;SDS011;20784;51.332;12.410;2024-03-02T13:43:37;10.90;;;7.57;;
34541;SDS011;20784;51.332;12.410;2024-03-02T13:46:13;9.70;;;6.70;;
34541;SDS011;20784;51.332;12.410;2024-03-02T13:48:54;15.95;;;6.88;;
34541;SDS011;20784;51.332;12.410;2024-03-02T13:51:24;12.52;;;8.18;;
34541;SDS011;20784;51.332;12.410;2024-03-02T13:53:50;12.18;;;6.97;;
34541;SDS011;20784;51.332;12.410;2024-03-02T13:56:16;10.95;;;7.88;;
34541;SDS011;20784;51.332;12.410;2024-03-02T13:58:42;11.40;;;6.68;;
34541;SDS011;20784;51.332;12.410;2024-03-02T14:01:11;10.15;;;6.55;;
34541;SDS011;20784;51.332;12.410;2024-03-02T14:03:39;9.25;;;6.97;;
34541;SDS011;20784;51.332;12.410;2024-03-02T14:06:07;11.25;;;7.07;;
34541;SDS011;20784;51.332;12.410;2024-03-02T14:08:41;14.40;;;7.32;;
34541;SDS011;20784;51.332;12.410;2024-03-02T14:11:10;10.57;;;7.25;;
34541;SDS011;20784;51.332;12.410;2024-03-02T14:13:41;12.95;;;7.32;;
34541;SDS011;20784;51.332;12.410;2024-03-02T14:16:09;9.18;;;6.57;;
34541;SDS011;20784;51.332;12.410;2024-03-02T14:18:39;9.93;;;6.35;;
34541;SDS011;20784;51.332;12.410;2024-03-02T14:21:10;12.48;;;7.28;;
34541;SDS011;20784;51.332;12.410;2024-03-02T14:23:38;10.07;;;6.05;;
34541;SDS011;20784;51.332;12.410;2024-03-02T14:26:05;8.77;;;6.03;;
34541;SDS011;20784;51.332;12.410;2024-03-02T14:28:31;10.32;;;6.57;;
34541;SDS011;20784;51.332;12.410;2024-03-02T14:31:01;8.25;;;5.65;;
34541;SDS011;20784;51.332;12.410;2024-03-02T14:33:27;9.45;;;6.47;;
34541;SDS011;20784;51.332;12.410;2024-03-02T14:35:53;7.95;;;5.40;;
34541;SDS011;20784;51.332;12.410;2024-03-02T14:38:21;7.38;;;5.28;;
34541;SDS011;20784;51.332;12.410;2024-03-02T14:40:47;8.07;;;5.18;;
34541;SDS011;20784;51.332;12.410;2024-03-02T14:43:19;8.30;;;5.28;;
34541;SDS011;20784;51.332;12.410;2024-03-02T14:45:48;6.97;;;4.60;;
34541;SDS011;20784;51.332;12.410;2024-03-02T14:48:17;8.75;;;5.55;;
34541;SDS011;20784;51.332;12.410;2024-03-02T14:50:43;9.15;;;5.60;;
34541;SDS011;20784;51.332;12.410;2024-03-02T14:53:11;10.27;;;4.72;;
34541;SDS011;20784;51.332;12.410;2024-03-02T14:55:39;8.55;;;5.05;;
34541;SDS011;20784;51.332;12.410;2024-03-02T14:58:08;5.65;;;4.68;;
34541;SDS011;20784;51.332;12.410;2024-03-02T15:00:33;8.57;;;4.68;;
34541;SDS011;20784;51.332;12.410;2024-03-02T15:02:59;8.48;;;5.25;;
34541;SDS011;20784;51.332;12.410;2024-03-02T15:05:33;8.05;;;5.10;;
34541;SDS011;20784;51.332;12.410;2024-03-02T15:07:59;8.43;;;4.80;;
34541;SDS011;20784;51.332;12.410;2024-03-02T15:10:27;7.65;;;4.20;;
34541;SDS011;20784;51.332;12.410;2024-03-02T15:12:53;7.63;;;4.43;;
34541;SDS011;20784;51.332;12.410;2024-03-02T15:15:19;8.52;;;4.78;;
34541;SDS011;20784;51.332;12.410;2024-03-02T15:17:44;8.98;;;4.75;;
34541;SDS011;20784;51.332;12.410;2024-03-02T15:20:10;6.10;;;4.25;;
34541;SDS011;20784;51.332;12.410;2024-03-02T15:22:36;7.47;;;5.28;;
34541;SDS011;20784;51.332;12.410;2024-03-02T15:25:02;6.63;;;4.82;;
34541;SDS011;20784;51.332;12.410;2024-03-02T15:27:35;6.82;;;4.57;;
34541;SDS011;20784;51.332;12.410;2024-03-02T15:30:03;10.02;;;5.68;;
34541;SDS011;20784;51.332;12.410;2024-03-02T15:32:29;7.57;;;4.95;;
34541;SDS011;20784;51.332;12.410;2024-03-02T15:34:55;7.70;;;5.10;;
34541;SDS011;20784;51.332;12.410;2024-03-02T15:37:20;7.93;;;4.93;;
34541;SDS011;20784;51.332;12.410;2024-03-02T15:39:46;8.20;;;5.07;;
34541;SDS011;20784;51.332;12.410;2024-03-02T15:42:13;9.68;;;5.03;;